Time;durP1;ratioP1;P1;durP2;ratioP2;P2;SDS_P1;SDS_P2;PMS_P1;PMS_P2;Temp;Humidity;BMP_temperature;BMP_pressure;BME280_temperature;BME280_humidity;BME280_pressure;Samples;Min_cycle;Max_cycle;Signal;HPM_P1;HPM_P2
2022/10/15 00:00:43;;;;;;;1.60;1.20;;;;;;;17.33;61.94;100744.78;6288277;22;20085;-83
2022/10/15 00:03:10;;;;;;;2.17;1.30;;;;;;;17.33;61.70;100747.41;6313868;22;20014;-82
2022/10/15 00:05:37;;;;;;;1.65;1.10;;;;;;;17.32;62.11;100746.53;6342220;22;20010;-80
2022/10/15 00:08:03;;;;;;;2.05;1.30;;;;;;;17.33;61.89;100747.41;6313033;22;20456;-82
2022/10/15 00:10:28;;;;;;;1.60;1.30;;;;;;;17.33;61.95;100740.44;6320255;22;20006;-84
2022/10/15 00:12:54;;;;;;;2.53;1.30;;;;;;;17.33;61.94;100742.19;6294804;22;20094;-81
2022/10/15 00:15:19;;;;;;;3.03;1.40;;;;;;;17.32;61.99;100738.75;6289213;22;20010;-82
2022/10/15 00:17:45;;;;;;;2.75;1.40;;;;;;;17.31;61.88;100742.22;6295575;22;20015;-82
2022/10/15 00:20:11;;;;;;;1.98;1.45;;;;;;;17.33;62.03;100739.59;6342763;22;19999;-82
2022/10/15 00:22:36;;;;;;;2.15;1.40;;;;;;;17.32;61.88;100730.94;6318677;22;20044;-82
2022/10/15 00:25:03;;;;;;;1.90;1.30;;;;;;;17.32;61.95;100732.69;6344242;22;20003;-82
2022/10/15 00:27:28;;;;;;;2.10;1.42;;;;;;;17.33;61.64;100729.19;6343814;22;20029;-82
2022/10/15 00:29:54;;;;;;;1.90;1.20;;;;;;;17.31;62.03;100720.53;6343623;22;20002;-82
2022/10/15 00:32:19;;;;;;;1.85;1.33;;;;;;;17.30;61.82;100724.88;6289582;22;20073;-82
2022/10/15 00:34:45;;;;;;;2.40;1.40;;;;;;;17.32;61.80;100730.09;6287667;22;20025;-82
2022/10/15 00:37:10;;;;;;;3.17;1.50;;;;;;;17.30;61.88;100732.69;6313605;22;20439;-82
2022/10/15 00:39:36;;;;;;;1.85;1.40;;;;;;;17.31;61.89;100731.81;6314095;22;20014;-82
2022/10/15 00:42:02;;;;;;;1.55;1.23;;;;;;;17.32;61.84;100730.09;6287828;22;20276;-82
2022/10/15 00:44:30;;;;;;;1.65;1.30;;;;;;;17.30;61.74;100731.84;6287757;22;20013;-82
2022/10/15 00:46:59;;;;;;;2.42;1.30;;;;;;;17.31;61.94;100731.81;6313948;22;20134;-81
2022/10/15 00:49:39;;;;;;;1.90;1.40;;;;;;;17.31;61.87;100728.34;6314023;22;20080;-81
2022/10/15 00:52:15;;;;;;;2.00;1.48;;;;;;;17.29;61.77;100725.78;6313841;22;20320;-82
2022/10/15 00:54:46;;;;;;;1.83;1.35;;;;;;;17.30;62.08;100724.03;6313584;22;20090;-83
2022/10/15 00:57:12;;;;;;;2.10;1.30;;;;;;;17.29;61.65;100725.78;6313334;22;20011;-81
2022/10/15 00:59:42;;;;;;;2.75;1.60;;;;;;;17.30;61.78;100727.50;6313439;22;20426;-82
2022/10/15 01:02:09;;;;;;;1.65;1.30;;;;;;;17.30;61.79;100727.50;6341023;22;20330;-82
2022/10/15 01:04:35;;;;;;;1.90;1.27;;;;;;;17.31;62.12;100726.63;6313355;22;20010;-84
2022/10/15 01:07:01;;;;;;;2.15;1.40;;;;;;;17.30;61.67;100721.44;6313459;22;20006;-83
2022/10/15 01:09:27;;;;;;;1.27;1.10;;;;;;;17.30;61.86;100727.50;6287527;22;20018;-82
2022/10/15 01:11:54;;;;;;;2.13;1.48;;;;;;;17.31;61.78;100721.41;6340983;22;19999;-82
2022/10/15 01:14:26;;;;;;;2.13;1.30;;;;;;;17.30;61.86;100722.28;6313124;22;20423;-82
2022/10/15 01:17:15;;;;;;;2.10;1.40;;;;;;;17.30;61.76;100718.84;6312992;22;20007;-82
2022/10/15 01:20:01;;;;;;;1.60;1.20;;;;;;;17.31;61.83;100720.53;6341683;22;19999;-82
2022/10/15 01:22:43;;;;;;;1.90;1.42;;;;;;;17.29;61.58;100715.38;6313871;22;20033;-82
2022/10/15 01:25:22;;;;;;;1.83;1.20;;;;;;;17.31;61.67;100715.34;6340823;22;20013;-81
2022/10/15 01:28:02;;;;;;;1.75;1.40;;;;;;;17.28;61.79;100706.69;6314125;22;20034;-82
2022/10/15 01:30:31;;;;;;;1.45;1.35;;;;;;;17.29;61.65;100707.56;6341477;22;20205;-81
2022/10/15 01:33:03;;;;;;;2.30;1.67;;;;;;;17.29;61.58;100710.16;6345333;22;20064;-83
2022/10/15 01:35:57;;;;;;;1.97;1.33;;;;;;;17.30;61.98;100706.69;6321570;22;20033;-82
2022/10/15 01:38:31;;;;;;;1.88;1.55;;;;;;;17.28;61.61;100692.81;6316506;22;20383;-82
2022/10/15 01:41:08;;;;;;;1.75;1.35;;;;;;;17.28;61.75;100700.63;6314029;22;20018;-81
2022/10/15 01:43:54;;;;;;;2.13;1.40;;;;;;;17.28;61.77;100695.44;6313822;22;20003;-81
2022/10/15 01:46:37;;;;;;;2.83;1.50;;;;;;;17.27;61.70;100689.38;6342337;22;19999;-82
2022/10/15 01:49:04;;;;;;;1.52;1.33;;;;;;;17.27;61.67;100686.78;6340979;22;20052;-81
2022/10/15 01:51:32;;;;;;;2.00;1.40;;;;;;;17.29;61.76;100681.56;6313215;22;20056;-82
2022/10/15 01:53:59;;;;;;;2.65;1.58;;;;;;;17.27;61.60;100678.97;6313743;22;20064;-82
2022/10/15 01:56:30;;;;;;;1.80;1.33;;;;;;;17.27;61.77;100676.38;6313412;22;20430;-82
2022/10/15 01:58:57;;;;;;;1.50;1.20;;;;;;;17.26;61.87;100673.78;6341377;22;19999;-82
2022/10/15 02:01:22;;;;;;;1.88;1.33;;;;;;;17.28;61.66;100672.88;6314283;22;20352;-82
2022/10/15 02:03:50;;;;;;;2.50;1.50;;;;;;;17.27;61.78;100673.78;6313668;22;20006;-82
2022/10/15 02:06:38;;;;;;;2.58;1.40;;;;;;;17.27;61.83;100672.91;6340993;22;20035;-82
2022/10/15 02:09:41;;;;;;;2.40;1.60;;;;;;;17.28;61.81;100664.22;6313571;22;20011;-82
2022/10/15 02:12:43;;;;;;;2.45;1.50;;;;;;;17.28;61.83;100667.69;6315088;22;20498;-82
2022/10/15 02:15:21;;;;;;;2.50;1.40;;;;;;;17.28;61.74;100661.63;6316073;22;20018;-81
2022/10/15 02:18:15;;;;;;;2.38;1.45;;;;;;;17.27;61.82;100659.91;6342547;22;20005;-83
2022/10/15 02:21:00;;;;;;;2.45;1.40;;;;;;;17.27;61.69;100654.72;6314387;22;20335;-82
2022/10/15 02:23:32;;;;;;;1.77;1.42;;;;;;;17.27;61.44;100655.56;6341410;22;20369;-83
2022/10/15 02:25:58;;;;;;;2.28;1.33;;;;;;;17.27;61.44;100652.97;6313876;22;20015;-82
2022/10/15 02:28:28;;;;;;;2.22;1.48;;;;;;;17.27;61.74;100649.50;6287463;22;20009;-82
2022/10/15 02:30:57;;;;;;;2.13;1.65;;;;;;;17.27;61.63;100649.50;6312562;22;20013;-83
2022/10/15 02:33:24;;;;;;;2.30;1.60;;;;;;;17.26;61.65;100646.03;6341134;22;20322;-81
2022/10/15 02:35:50;;;;;;;1.80;1.50;;;;;;;17.28;61.88;100654.66;6311986;22;20014;-80
2022/10/15 02:38:19;;;;;;;2.35;1.40;;;;;;;17.28;61.94;100646.00;6311615;22;20007;-81
2022/10/15 02:40:46;;;;;;;2.15;1.70;;;;;;;17.26;61.90;100642.56;6312042;22;20003;-81
2022/10/15 02:43:13;;;;;;;2.92;1.42;;;;;;;17.26;61.60;100640.81;6312908;22;20369;-81
2022/10/15 02:45:39;;;;;;;2.55;1.67;;;;;;;17.28;61.79;100641.66;6286658;22;20342;-83
2022/10/15 02:48:05;;;;;;;2.38;1.48;;;;;;;17.28;61.88;100633.88;6312054;22;20014;-83
2022/10/15 02:50:31;;;;;;;2.65;1.50;;;;;;;17.28;61.50;100633.88;6286867;22;20018;-82
2022/10/15 02:52:56;;;;;;;2.60;1.52;;;;;;;17.28;61.71;100623.47;6316885;22;20488;-83
2022/10/15 02:55:22;;;;;;;2.30;1.60;;;;;;;17.28;61.81;100620.00;6318494;22;20011;-82
2022/10/15 02:57:47;;;;;;;2.20;1.60;;;;;;;17.27;61.77;100626.09;6341342;22;20007;-82
2022/10/15 03:00:13;;;;;;;2.13;1.50;;;;;;;17.27;61.59;100623.50;6316206;22;20014;-82
2022/10/15 03:02:38;;;;;;;2.03;1.50;;;;;;;17.28;61.93;100622.59;6340473;22;20014;-81
2022/10/15 03:05:04;;;;;;;2.22;1.50;;;;;;;17.27;61.86;100624.34;6261175;22;20115;-80
2022/10/15 03:07:29;;;;;;;2.92;1.50;;;;;;;17.27;61.83;100623.50;6312724;22;20007;-81
2022/10/15 03:09:55;;;;;;;2.92;1.48;;;;;;;17.26;61.62;100617.41;6340233;22;20030;-81
2022/10/15 03:12:22;;;;;;;3.65;1.80;;;;;;;17.27;61.76;100619.16;6260976;22;20021;-82
2022/10/15 03:14:48;;;;;;;2.22;1.83;;;;;;;17.28;61.67;100620.84;6313460;22;20014;-81
2022/10/15 03:17:13;;;;;;;2.00;1.60;;;;;;;17.26;61.90;100612.22;6312065;22;20011;-81
2022/10/15 03:19:39;;;;;;;2.42;1.70;;;;;;;17.27;61.73;100616.56;6339496;22;20010;-82
2022/10/15 03:22:04;;;;;;;2.17;1.50;;;;;;;17.27;61.74;100613.09;6260534;22;20007;-81
2022/10/15 03:24:29;;;;;;;3.35;1.38;;;;;;;17.28;61.58;100613.06;6260756;22;20014;-81
2022/10/15 03:26:55;;;;;;;2.40;1.70;;;;;;;17.27;61.74;100615.69;6260536;22;20035;-81
2022/10/15 03:29:20;;;;;;;2.00;1.63;;;;;;;17.27;61.93;100610.50;6311959;22;20059;-81
2022/10/15 03:31:45;;;;;;;2.40;1.70;;;;;;;17.28;61.66;100620.00;6286311;22;20078;-81
2022/10/15 03:34:11;;;;;;;3.58;1.77;;;;;;;17.28;61.98;100614.81;6312056;22;20430;-81
2022/10/15 03:36:36;;;;;;;2.15;1.50;;;;;;;17.27;61.73;100613.09;6286437;22;20342;-83
2022/10/15 03:39:02;;;;;;;2.70;1.70;;;;;;;17.26;61.69;100614.81;6312313;22;20476;-82
2022/10/15 03:41:27;;;;;;;2.00;1.60;;;;;;;17.26;61.64;100613.97;6312975;22;20021;-82
2022/10/15 03:43:52;;;;;;;2.88;1.92;;;;;;;17.26;61.69;100611.38;6288216;22;20011;-83
2022/10/15 03:46:18;;;;;;;3.15;1.65;;;;;;;17.27;61.70;100610.50;6263041;22;20316;-81
2022/10/15 03:48:47;;;;;;;3.33;1.48;;;;;;;17.27;61.89;100610.50;6314156;22;20053;-81
2022/10/15 03:51:16;;;;;;;2.20;1.58;;;;;;;17.27;61.73;100611.34;6315234;22;20002;-82
2022/10/15 03:53:41;;;;;;;3.13;1.80;;;;;;;17.26;61.76;100611.38;6288453;22;20387;-82
2022/10/15 03:56:07;;;;;;;2.00;1.55;;;;;;;17.26;61.71;100614.81;6262930;22;20026;-82
2022/10/15 03:58:32;;;;;;;2.10;1.50;;;;;;;17.25;61.72;100604.44;6288764;22;20397;-81
2022/10/15 04:00:58;;;;;;;1.75;1.48;;;;;;;17.24;61.92;100603.56;6287967;22;20339;-82
2022/10/15 04:03:23;;;;;;;2.05;1.60;;;;;;;17.26;61.76;100606.16;6314521;22;20015;-81
2022/10/15 04:05:52;;;;;;;2.08;1.67;;;;;;;17.27;61.65;100611.34;6313833;22;20018;-81
2022/10/15 04:08:18;;;;;;;2.25;1.65;;;;;;;17.27;61.67;100613.09;6343919;22;20003;-82
2022/10/15 04:10:44;;;;;;;2.38;1.55;;;;;;;17.26;61.66;100619.16;6292506;22;20453;-82
2022/10/15 04:13:09;;;;;;;2.10;1.50;;;;;;;17.26;61.70;100612.22;6319223;22;20063;-82
2022/10/15 04:15:38;;;;;;;3.13;1.63;;;;;;;17.25;61.54;100613.09;6320091;22;20069;-83
2022/10/15 04:18:03;;;;;;;2.28;1.60;;;;;;;17.26;61.53;100608.75;6293698;22;20013;-82
2022/10/15 04:20:29;;;;;;;2.15;1.60;;;;;;;17.26;61.45;100613.97;6346199;22;20077;-82
2022/10/15 04:22:55;;;;;;;2.40;1.60;;;;;;;17.27;61.71;100626.97;6344390;22;20052;-81
2022/10/15 04:25:20;;;;;;;2.10;1.50;;;;;;;17.25;61.59;100620.91;6318455;22;20449;-82
2022/10/15 04:27:46;;;;;;;2.45;1.73;;;;;;;17.25;61.61;100614.84;6317005;22;20069;-82
2022/10/15 04:30:12;;;;;;;2.15;1.58;;;;;;;17.27;61.76;100620.91;6288204;22;20011;-81
2022/10/15 04:32:37;;;;;;;2.17;1.70;;;;;;;17.25;61.80;100613.09;6313175;22;20440;-81
2022/10/15 04:35:03;;;;;;;2.15;1.42;;;;;;;17.25;61.62;100612.25;6313196;22;20077;-81
2022/10/15 04:37:32;;;;;;;2.63;1.60;;;;;;;17.25;61.62;100607.91;6313541;22;20071;-82
2022/10/15 04:39:57;;;;;;;2.17;1.70;;;;;;;17.25;61.64;100605.31;6313485;22;20093;-81
2022/10/15 04:42:22;;;;;;;2.33;1.60;;;;;;;17.25;61.79;100607.91;6313930;22;20457;-81
2022/10/15 04:44:48;;;;;;;1.83;1.48;;;;;;;17.25;61.85;100615.72;6313779;22;20419;-81
2022/10/15 04:47:13;;;;;;;2.58;1.50;;;;;;;17.26;61.64;100613.97;6287326;22;20419;-81
2022/10/15 04:49:38;;;;;;;1.92;1.63;;;;;;;17.25;61.52;100607.91;6287518;22;20056;-81
2022/10/15 04:52:04;;;;;;;1.73;1.55;;;;;;;17.25;61.62;100601.84;6287595;22;20003;-81
2022/10/15 04:54:29;;;;;;;2.50;1.80;;;;;;;17.24;61.63;100605.31;6286781;22;20026;-81
2022/10/15 04:56:54;;;;;;;3.58;1.80;;;;;;;17.25;61.71;100604.44;6287046;22;20003;-81
2022/10/15 04:59:20;;;;;;;3.53;1.65;;;;;;;17.26;61.74;100608.75;6287229;22;20027;-81
2022/10/15 05:01:45;;;;;;;2.10;1.70;;;;;;;17.24;61.75;100600.97;6313091;22;20011;-82
2022/10/15 05:04:11;;;;;;;2.05;1.52;;;;;;;17.24;61.77;100597.50;6340673;22;20007;-81
2022/10/15 05:06:37;;;;;;;1.80;1.40;;;;;;;17.23;61.47;100594.06;6314016;22;20012;-82
2022/10/15 05:09:02;;;;;;;1.98;1.55;;;;;;;17.23;61.84;100591.47;6346655;22;20003;-83
2022/10/15 05:11:28;;;;;;;2.15;1.52;;;;;;;17.23;61.62;100591.47;6294810;22;20013;-82
2022/10/15 05:13:56;;;;;;;1.85;1.52;;;;;;;17.22;61.84;100594.94;6347829;22;20052;-82
2022/10/15 05:16:24;;;;;;;1.55;1.45;;;;;;;17.22;61.67;100597.56;6342982;22;19994;-82
2022/10/15 05:18:51;;;;;;;2.08;1.42;;;;;;;17.22;61.54;100599.28;6313661;22;19999;-81
2022/10/15 05:21:18;;;;;;;2.05;1.40;;;;;;;17.22;61.60;100600.16;6313485;22;20003;-81
2022/10/15 05:23:44;;;;;;;1.70;1.60;;;;;;;17.22;61.68;100600.16;6339831;22;20426;-82
2022/10/15 05:26:12;;;;;;;2.00;1.48;;;;;;;17.21;61.64;100592.38;6314029;22;20338;-82
2022/10/15 05:28:38;;;;;;;1.92;1.60;;;;;;;17.22;61.60;100591.47;6313525;22;20025;-81
2022/10/15 05:31:09;;;;;;;1.88;1.60;;;;;;;17.22;61.76;100591.47;6287462;22;20007;-81
2022/10/15 05:33:34;;;;;;;1.80;1.50;;;;;;;17.22;61.59;100594.94;6312962;22;20007;-81
2022/10/15 05:36:09;;;;;;;2.30;1.58;;;;;;;17.22;61.55;100592.34;6317966;22;20437;-82
2022/10/15 05:38:35;;;;;;;3.67;1.80;;;;;;;17.22;61.71;100594.06;6319014;22;20588;-84
2022/10/15 05:41:00;;;;;;;1.70;1.50;;;;;;;17.22;61.71;100583.66;6341237;22;20014;-82
2022/10/15 05:43:25;;;;;;;2.25;1.67;;;;;;;17.21;61.66;100595.81;6321413;22;20077;-82
2022/10/15 05:45:55;;;;;;;2.30;1.85;;;;;;;17.22;61.65;100597.56;6319788;22;20465;-83
2022/10/15 05:48:21;;;;;;;2.30;1.60;;;;;;;17.22;61.63;100592.34;6315214;22;20010;-81
2022/10/15 05:50:46;;;;;;;2.05;1.70;;;;;;;17.23;61.71;100603.59;6314803;22;20318;-82
2022/10/15 05:53:11;;;;;;;2.63;1.65;;;;;;;17.23;61.81;100601.84;6314677;22;20057;-83
2022/10/15 05:55:37;;;;;;;2.15;1.52;;;;;;;17.23;61.77;100599.25;6313289;22;20504;-80
2022/10/15 05:58:03;;;;;;;2.17;1.70;;;;;;;17.23;61.88;100599.25;6286973;22;20017;-82
2022/10/15 06:00:29;;;;;;;2.63;1.80;;;;;;;17.24;61.67;100603.56;6312516;22;20093;-81
2022/10/15 06:02:54;;;;;;;2.10;1.63;;;;;;;17.23;61.81;100599.25;6312880;22;20026;-81
2022/10/15 06:05:19;;;;;;;1.85;1.60;;;;;;;17.22;61.73;100594.94;6312130;22;20018;-81
2022/10/15 06:07:44;;;;;;;2.60;1.90;;;;;;;17.22;61.75;100588.88;6312946;22;19995;-83
2022/10/15 06:10:10;;;;;;;2.30;1.67;;;;;;;17.24;61.78;100589.72;6314164;22;20033;-82
2022/10/15 06:12:37;;;;;;;3.20;1.67;;;;;;;17.24;61.76;100589.72;6341869;22;20010;-83
2022/10/15 06:15:03;;;;;;;1.90;1.60;;;;;;;17.25;61.81;100583.66;6315361;22;20003;-83
2022/10/15 06:17:28;;;;;;;3.75;1.88;;;;;;;17.25;61.71;100578.44;6340983;22;20056;-82
2022/10/15 06:19:53;;;;;;;2.97;1.63;;;;;;;17.25;61.43;100578.44;6263150;22;20044;-82
2022/10/15 06:22:19;;;;;;;2.85;1.98;;;;;;;17.25;61.62;100574.09;6287833;22;20430;-83
2022/10/15 06:24:44;;;;;;;1.98;1.63;;;;;;;17.24;61.81;100574.97;6262826;22;20006;-82
2022/10/15 06:27:10;;;;;;;2.45;2.00;;;;;;;17.25;61.69;100570.66;6312548;22;20010;-82
2022/10/15 06:29:35;;;;;;;3.08;1.92;;;;;;;17.25;61.95;100574.09;6340012;22;20478;-82
2022/10/15 06:32:01;;;;;;;2.60;1.80;;;;;;;17.26;61.84;100575.81;6287530;22;20030;-82
2022/10/15 06:34:26;;;;;;;2.17;1.73;;;;;;;17.26;62.05;100569.75;6312061;22;20017;-81
2022/10/15 06:36:52;;;;;;;1.92;1.70;;;;;;;17.27;61.93;100567.13;6311973;22;20011;-80
2022/10/15 06:39:17;;;;;;;2.22;1.50;;;;;;;17.27;62.00;100579.28;6311661;22;20018;-80
2022/10/15 06:41:43;;;;;;;2.20;1.90;;;;;;;17.30;61.86;100578.38;6339915;22;20077;-81
2022/10/15 06:44:08;;;;;;;2.40;1.90;;;;;;;17.27;62.06;100580.16;6260824;22;20007;-81
2022/10/15 06:46:34;;;;;;;2.50;2.05;;;;;;;17.28;61.97;100581.84;6339430;22;20096;-81
2022/10/15 06:48:59;;;;;;;2.10;1.90;;;;;;;17.28;61.80;100579.25;6311654;22;20003;-83
2022/10/15 06:51:24;;;;;;;2.88;2.13;;;;;;;17.30;61.83;100578.38;6339973;22;20490;-81
2022/10/15 06:53:50;;;;;;;3.05;1.60;;;;;;;17.30;62.06;100581.84;6312049;22;20002;-78
2022/10/15 06:56:15;;;;;;;10.13;3.38;;;;;;;17.36;61.91;100575.72;6286192;22;20423;-79
2022/10/15 06:58:42;;;;;;;9.75;3.65;;;;;;;17.39;61.69;100575.66;6312330;22;20389;-78
2022/10/15 07:01:08;;;;;;;6.22;3.15;;;;;;;17.37;62.01;100573.06;6312104;22;20011;-78
2022/10/15 07:03:35;;;;;;;6.15;3.25;;;;;;;17.36;62.09;100578.31;6312141;22;20010;-79
2022/10/15 07:06:02;;;;;;;7.38;3.20;;;;;;;17.36;61.93;100578.31;6312566;22;20100;-78
2022/10/15 07:08:27;;;;;;;10.48;3.25;;;;;;;17.39;61.95;100584.31;6312700;22;20081;-77
2022/10/15 07:10:53;;;;;;;28.73;7.60;;;;;;;17.43;61.99;100577.34;6339249;22;20031;-77
2022/10/15 07:13:18;;;;;;;25.38;7.57;;;;;;;17.41;61.85;100574.75;6286826;22;20017;-77
2022/10/15 07:15:45;;;;;;;19.60;7.50;;;;;;;17.42;62.10;100573.00;6262562;22;20084;-77
2022/10/15 07:18:10;;;;;;;21.58;7.40;;;;;;;17.42;61.89;100573.00;6264056;22;20010;-77
2022/10/15 07:20:35;;;;;;;19.15;6.65;;;;;;;17.42;62.06;100581.69;6342644;22;20010;-77
2022/10/15 07:23:01;;;;;;;15.18;6.35;;;;;;;17.43;61.96;100575.59;6289592;22;20009;-77
2022/10/15 07:25:27;;;;;;;14.70;5.85;;;;;;;17.46;61.85;100572.09;6313908;22;20007;-76
2022/10/15 07:27:54;;;;;;;15.02;6.32;;;;;;;17.45;61.96;100573.00;6313965;22;20006;-76
2022/10/15 07:30:20;;;;;;;17.17;6.07;;;;;;;17.46;61.89;100575.56;6340959;22;20423;-77
2022/10/15 07:32:45;;;;;;;14.93;5.78;;;;;;;17.45;61.99;100573.00;6313744;22;20007;-78
2022/10/15 07:35:11;;;;;;;10.65;4.88;;;;;;;17.45;62.06;100573.84;6287881;22;20013;-80
2022/10/15 07:37:36;;;;;;;11.85;5.07;;;;;;;17.44;61.70;100576.44;6313105;22;20007;-78
2022/10/15 07:40:02;;;;;;;13.90;5.28;;;;;;;17.44;62.08;100566.94;6287316;22;20023;-76
2022/10/15 07:42:27;;;;;;;14.60;5.38;;;;;;;17.45;61.93;100578.19;6287624;22;20011;-77
2022/10/15 07:44:53;;;;;;;10.98;4.93;;;;;;;17.44;61.86;100566.94;6262187;22;20003;-77
2022/10/15 07:47:18;;;;;;;13.35;4.85;;;;;;;17.45;61.80;100571.25;6288118;22;20010;-77
2022/10/15 07:49:43;;;;;;;8.13;4.25;;;;;;;17.44;61.97;100563.44;6313558;22;20053;-77
2022/10/15 07:52:09;;;;;;;11.10;4.32;;;;;;;17.43;61.98;100557.38;6287551;22;20002;-77
2022/10/15 07:54:34;;;;;;;13.65;4.45;;;;;;;17.43;61.83;100554.78;6262277;22;20026;-78
2022/10/15 07:57:00;;;;;;;10.55;4.50;;;;;;;17.48;61.70;100559.94;6339371;22;20410;-75
2022/10/15 07:59:25;;;;;;;10.98;4.70;;;;;;;17.47;61.71;100572.06;6313845;22;20002;-75
2022/10/15 08:01:51;;;;;;;12.43;5.05;;;;;;;17.47;61.77;100566.03;6313503;22;20006;-75
2022/10/15 08:04:17;;;;;;;16.98;6.38;;;;;;;17.47;61.93;100573.81;6287614;22;20077;-75
2022/10/15 08:06:42;;;;;;;17.38;6.07;;;;;;;17.46;62.16;100574.69;6313725;22;20010;-76
2022/10/15 08:09:07;;;;;;;15.60;5.95;;;;;;;17.47;62.11;100576.44;6313056;22;20038;-76
2022/10/15 08:11:33;;;;;;;13.93;5.57;;;;;;;17.48;62.04;100581.63;6313839;22;20002;-76
2022/10/15 08:13:58;;;;;;;13.77;5.50;;;;;;;17.48;62.06;100579.03;6340911;22;20003;-75
2022/10/15 08:16:23;;;;;;;12.20;5.63;;;;;;;17.48;62.11;100573.81;6340789;22;20007;-76
2022/10/15 08:18:49;;;;;;;13.90;5.40;;;;;;;17.48;62.17;100570.34;6344262;22;20045;-76
2022/10/15 08:21:15;;;;;;;15.80;5.65;;;;;;;17.47;62.16;100569.47;6319536;22;20007;-75
2022/10/15 08:23:40;;;;;;;13.80;5.35;;;;;;;17.47;62.14;100573.81;6313501;22;20028;-75
2022/10/15 08:26:06;;;;;;;13.55;5.07;;;;;;;17.47;62.12;100576.44;6345735;22;20002;-76
2022/10/15 08:28:32;;;;;;;13.55;5.00;;;;;;;17.46;62.05;100572.97;6344035;22;19998;-76
2022/10/15 08:31:00;;;;;;;12.63;4.85;;;;;;;17.46;62.09;100569.50;6341053;22;19999;-75
2022/10/15 08:33:25;;;;;;;11.27;4.80;;;;;;;17.46;62.12;100566.88;6340720;22;20002;-76
2022/10/15 08:35:51;;;;;;;11.30;5.03;;;;;;;17.46;62.04;100572.97;6313378;22;20007;-76
2022/10/15 08:38:16;;;;;;;13.85;4.97;;;;;;;17.47;61.97;100563.44;6286676;22;20334;-76
2022/10/15 08:40:47;;;;;;;11.48;5.15;;;;;;;17.47;62.05;100559.06;6313055;22;20014;-75
2022/10/15 08:43:24;;;;;;;12.57;4.68;;;;;;;17.48;61.85;100547.81;6313302;22;20003;-76
2022/10/15 08:45:54;;;;;;;10.80;4.60;;;;;;;17.50;62.15;100555.56;6343818;22;20090;-75
2022/10/15 08:48:29;;;;;;;9.50;4.60;;;;;;;17.51;61.88;100546.91;6344072;22;20002;-75
2022/10/15 08:51:19;;;;;;;9.10;4.60;;;;;;;17.53;61.73;100549.44;6316821;22;20087;-76
2022/10/15 08:53:49;;;;;;;11.23;4.53;;;;;;;17.52;62.01;100550.34;6313829;22;20040;-75
2022/10/15 08:56:20;;;;;;;11.10;4.65;;;;;;;17.52;61.66;100545.16;6340794;22;20002;-75
2022/10/15 08:59:23;;;;;;;9.90;4.32;;;;;;;17.53;61.56;100555.53;6340479;22;20010;-75
2022/10/15 09:01:51;;;;;;;9.38;4.25;;;;;;;17.52;61.82;100545.16;6340867;22;20006;-75
2022/10/15 09:04:31;;;;;;;10.27;4.45;;;;;;;17.53;62.12;100550.34;6340622;22;19998;-75
2022/10/15 09:07:11;;;;;;;8.98;4.07;;;;;;;17.52;62.08;100540.78;6341063;22;20007;-75
2022/10/15 09:10:04;;;;;;;8.13;4.50;;;;;;;17.53;61.89;100534.72;6312679;22;20002;-75
2022/10/15 09:13:08;;;;;;;7.40;4.03;;;;;;;17.56;61.70;100532.06;6340221;22;20002;-76
2022/10/15 09:15:39;;;;;;;11.48;4.40;;;;;;;17.56;61.79;100537.28;6312700;22;20426;-75
2022/10/15 09:18:10;;;;;;;10.45;3.88;;;;;;;17.58;61.67;100529.44;6340793;22;20431;-75
2022/10/15 09:20:36;;;;;;;8.38;4.40;;;;;;;17.57;61.73;100520.78;6314095;22;20014;-75
2022/10/15 09:23:02;;;;;;;7.35;3.70;;;;;;;17.57;62.01;100533.81;6312787;22;20006;-75
2022/10/15 09:25:34;;;;;;;10.27;4.00;;;;;;;17.56;61.81;100531.22;6340173;22;20003;-75
2022/10/15 09:28:08;;;;;;;7.88;4.35;;;;;;;17.56;61.66;100524.25;6312685;22;20077;-75
2022/10/15 09:30:51;;;;;;;9.40;4.18;;;;;;;17.57;61.75;100517.31;6312416;22;20450;-76
2022/10/15 09:33:47;;;;;;;6.87;4.57;;;;;;;17.57;61.78;100515.59;6340610;22;20006;-75
2022/10/15 09:36:26;;;;;;;6.80;4.10;;;;;;;17.59;61.71;100513.81;6313330;22;20708;-76
2022/10/15 09:39:04;;;;;;;9.73;4.43;;;;;;;17.61;61.45;100514.63;6339949;22;20013;-76
2022/10/15 09:41:45;;;;;;;7.75;3.40;;;;;;;17.62;61.65;100511.16;6339883;22;20007;-75
2022/10/15 09:44:13;;;;;;;8.15;4.28;;;;;;;17.65;61.65;100518.91;6312519;22;20007;-75
2022/10/15 09:46:46;;;;;;;10.38;4.28;;;;;;;17.64;61.50;100511.16;6312283;22;20020;-76
2022/10/15 09:49:21;;;;;;;;;;;;;;;17.64;61.63;100513.75;6340355;22;20025;-76
2022/10/15 09:51:52;;;;;;;7.40;3.92;;;;;;;17.64;61.45;100506.81;6340360;22;19954;-76
2022/10/15 09:54:38;;;;;;;6.78;4.00;;;;;;;17.64;61.46;100503.34;6312225;22;20042;-76
2022/10/15 09:57:08;;;;;;;7.90;4.20;;;;;;;17.64;61.46;100500.75;6340047;22;20007;-76
2022/10/15 09:59:33;;;;;;;8.18;4.00;;;;;;;17.63;61.35;100494.66;6339974;22;19998;-76
2022/10/15 10:02:01;;;;;;;7.40;4.13;;;;;;;17.63;61.46;100493.81;6312138;22;20532;-76
2022/10/15 10:04:32;;;;;;;7.13;4.30;;;;;;;17.62;61.40;100486.91;6340084;22;20003;-76
2022/10/15 10:07:06;;;;;;;7.53;4.20;;;;;;;17.62;61.37;100484.28;6339955;22;20093;-76
2022/10/15 10:09:33;;;;;;;;;;;;;;;17.63;61.48;100483.41;6340442;22;20028;-76
2022/10/15 10:12:00;;;;;;;5.95;4.03;;;;;;;17.62;61.28;100490.34;6339747;22;19903;-76
2022/10/15 10:14:52;;;;;;;6.13;3.80;;;;;;;17.62;61.63;100484.28;6339946;22;19999;-76
2022/10/15 10:17:23;;;;;;;5.57;4.20;;;;;;;17.63;61.38;100499.00;6312201;22;20003;-76
2022/10/15 10:20:13;;;;;;;7.68;4.22;;;;;;;17.62;61.36;100492.09;6312085;22;20007;-76
2022/10/15 10:22:45;;;;;;;6.75;3.95;;;;;;;17.62;61.40;100494.72;6339998;22;20364;-76
2022/10/15 10:25:26;;;;;;;5.38;3.78;;;;;;;17.61;61.54;100495.56;6339880;22;20434;-76
2022/10/15 10:27:58;;;;;;;7.35;3.90;;;;;;;17.60;61.33;100494.72;6311852;22;20338;-76
2022/10/15 10:30:23;;;;;;;6.32;3.60;;;;;;;17.61;61.68;100487.78;6340068;22;20017;-76
2022/10/15 10:32:56;;;;;;;5.93;3.40;;;;;;;17.61;61.36;100485.16;6286557;22;20053;-76
2022/10/15 10:35:23;;;;;;;4.47;3.55;;;;;;;17.62;61.35;100476.50;6339875;22;20034;-76
2022/10/15 10:37:50;;;;;;;6.10;3.67;;;;;;;17.64;61.09;100472.97;6339461;22;20002;-76
2022/10/15 10:40:26;;;;;;;4.47;3.22;;;;;;;17.67;61.46;100469.47;6340094;22;20100;-76
2022/10/15 10:43:21;;;;;;;5.97;3.78;;;;;;;17.69;61.37;100471.16;6338664;22;20453;-76
2022/10/15 10:46:23;;;;;;;4.75;3.38;;;;;;;17.70;61.31;100469.41;6340702;22;19998;-76
2022/10/15 10:48:50;;;;;;;5.25;3.45;;;;;;;17.70;61.36;100477.22;6300024;22;20011;-76
2022/10/15 10:51:17;;;;;;;4.75;3.33;;;;;;;17.67;61.31;100472.06;6343219;22;20002;-76
2022/10/15 10:53:55;;;;;;;4.78;3.42;;;;;;;17.66;61.33;100473.81;6345595;22;20003;-76
2022/10/15 10:56:27;;;;;;;5.22;3.25;;;;;;;17.66;61.46;100480.78;6314984;22;20010;-76
2022/10/15 10:59:15;;;;;;;5.35;3.30;;;;;;;17.63;61.48;100479.03;6315079;22;20066;-76
2022/10/15 11:01:42;;;;;;;5.40;3.15;;;;;;;17.64;61.30;100478.19;6344826;22;20007;-76
2022/10/15 11:04:13;;;;;;;6.07;3.53;;;;;;;17.64;61.30;100465.16;6318422;22;20017;-76
2022/10/15 11:06:38;;;;;;;6.25;3.38;;;;;;;17.65;61.27;100469.47;6345704;22;20038;-76
2022/10/15 11:09:24;;;;;;;4.72;3.35;;;;;;;17.64;61.27;100469.53;6347192;22;19991;-77
2022/10/15 11:11:56;;;;;;;8.30;3.03;;;;;;;17.66;61.36;100467.75;6347212;22;20032;-77
2022/10/15 11:14:43;;;;;;;4.20;3.00;;;;;;;17.64;61.26;100464.31;6319498;22;20333;-77
2022/10/15 11:17:28;;;;;;;5.00;3.17;;;;;;;17.64;61.32;100457.38;6346438;22;20048;-76
2022/10/15 11:20:02;;;;;;;5.40;2.90;;;;;;;17.64;61.27;100459.13;6344544;22;19999;-76
2022/10/15 11:22:39;;;;;;;;;;;;;;;17.65;61.17;100463.41;6316684;22;20461;-76
2022/10/15 11:25:11;;;;;;;4.38;2.90;;;;;;;17.66;61.12;100459.94;6315424;22;19926;-78
2022/10/15 11:27:48;;;;;;;4.03;3.08;;;;;;;17.68;61.06;100455.56;6315400;22;20033;-78
2022/10/15 11:30:34;;;;;;;4.35;3.08;;;;;;;17.70;61.29;100456.38;6315805;22;20006;-77
2022/10/15 11:33:22;;;;;;;6.07;2.75;;;;;;;17.67;61.29;100454.69;6343077;22;20002;-77
2022/10/15 11:36:00;;;;;;;3.55;2.75;;;;;;;17.68;61.20;100456.44;6315300;22;20022;-79